createdAt,value
2023-04-18T00:02:07.543Z,80.72
2023-04-18T00:04:34.777Z,80.81
2023-04-18T00:07:01.794Z,81.14
2023-04-18T00:09:28.779Z,81.29
2023-04-18T00:11:57.182Z,80.64
2023-04-18T00:14:24.833Z,80.12
2023-04-18T00:16:54.287Z,80.24
2023-04-18T00:19:21.679Z,80.28
2023-04-18T00:21:49.568Z,80.28
2023-04-18T00:24:16.778Z,80.95
2023-04-18T00:26:43.817Z,80.96
2023-04-18T00:29:12.184Z,81.19
2023-04-18T00:31:39.125Z,81.17
2023-04-18T00:34:06.311Z,81.26
2023-04-18T00:36:33.287Z,81.33
2023-04-18T00:39:00.399Z,80.84
2023-04-18T00:41:28.328Z,80.64
2023-04-18T00:43:55.357Z,80.61
2023-04-18T00:46:24.492Z,80.89
2023-04-18T00:48:51.698Z,80.96
2023-04-18T00:51:18.815Z,80.54
2023-04-18T00:53:46.208Z,80.27
2023-04-18T00:56:13.372Z,80.50
2023-04-18T00:58:41.141Z,79.60
2023-04-18T01:01:09.054Z,79.81
2023-04-18T01:03:39.668Z,79.30
2023-04-18T01:06:07.290Z,79.77
2023-04-18T01:08:34.556Z,80.07
2023-04-18T01:11:01.706Z,79.71
2023-04-18T01:13:28.646Z,80.27
2023-04-18T01:15:55.982Z,80.64
2023-04-18T01:18:23.104Z,80.43
2023-04-18T01:20:53.234Z,79.69
2023-04-18T01:23:21.314Z,80.04
2023-04-18T01:25:49.711Z,80.57
2023-04-18T01:28:19.803Z,80.90
2023-04-18T01:30:48.597Z,80.40
2023-04-18T01:33:16.384Z,80.50
2023-04-18T01:35:44.568Z,80.31
2023-04-18T01:38:11.687Z,80.42
2023-04-18T01:40:38.713Z,80.51
2023-04-18T01:43:07.136Z,80.59
2023-04-18T01:45:34.868Z,80.61
2023-04-18T01:48:02.000Z,79.73
2023-04-18T01:50:29.063Z,80.76
2023-04-18T01:52:56.053Z,79.72
2023-04-18T01:55:23.086Z,80.00
2023-04-18T01:57:50.979Z,80.89
2023-04-18T02:00:21.664Z,79.85
2023-04-18T02:02:50.403Z,80.07
2023-04-18T02:05:17.782Z,79.87
2023-04-18T02:07:45.567Z,81.19
2023-04-18T02:10:12.545Z,81.07
2023-04-18T02:12:39.466Z,81.47
2023-04-18T02:15:07.701Z,81.95
2023-04-18T02:17:37.961Z,82.23
2023-04-18T02:20:05.624Z,81.62
2023-04-18T02:22:32.593Z,82.35
2023-04-18T02:25:00.836Z,82.56
2023-04-18T02:27:27.946Z,82.58
2023-04-18T02:29:57.079Z,82.20
2023-04-18T02:32:24.884Z,82.35
2023-04-18T02:34:53.479Z,81.93
2023-04-18T02:37:20.496Z,82.36
2023-04-18T02:39:47.769Z,82.08
2023-04-18T02:42:14.823Z,82.22
2023-04-18T02:44:41.768Z,82.67
2023-04-18T02:47:09.549Z,82.07
2023-04-18T02:49:39.796Z,81.62
2023-04-18T02:52:08.266Z,81.92
2023-04-18T02:54:35.008Z,81.47
2023-04-18T02:57:07.339Z,81.00
2023-04-18T02:59:49.132Z,81.44
2023-04-18T03:02:34.531Z,81.16
2023-04-18T03:05:12.302Z,80.74
2023-04-18T03:07:40.973Z,80.73
2023-04-18T03:10:08.469Z,80.99
2023-04-18T03:12:37.475Z,80.98
2023-04-18T03:15:05.477Z,81.45
2023-04-18T03:17:32.941Z,80.79
2023-04-18T03:20:00.287Z,81.40
2023-04-18T03:22:27.225Z,79.98
2023-04-18T03:24:58.010Z,80.37
2023-04-18T03:27:40.032Z,81.35
2023-04-18T03:30:08.588Z,81.37
2023-04-18T03:32:36.783Z,80.62
2023-04-18T03:35:04.204Z,80.43
2023-04-18T03:37:31.247Z,81.00
2023-04-18T03:40:01.050Z,80.64
2023-04-18T03:42:29.984Z,80.96
2023-04-18T03:44:57.236Z,80.36
2023-04-18T03:47:24.282Z,80.75
2023-04-18T03:49:56.025Z,80.50
2023-04-18T03:52:25.088Z,80.62
2023-04-18T03:54:52.175Z,81.35
2023-04-18T03:57:25.552Z,80.45
2023-04-18T03:59:52.708Z,80.84
2023-04-18T04:02:19.894Z,80.51
2023-04-18T04:04:47.077Z,81.22
2023-04-18T04:07:14.306Z,81.38
2023-04-18T04:09:42.152Z,81.06
2023-04-18T04:12:09.201Z,80.74
2023-04-18T04:14:37.657Z,80.59
2023-04-18T04:17:06.158Z,80.31
2023-04-18T04:19:33.459Z,80.35
2023-04-18T04:22:09.070Z,80.50
2023-04-18T04:24:38.610Z,80.73
2023-04-18T04:27:07.063Z,80.94
2023-04-18T04:29:39.253Z,81.39
2023-04-18T04:32:08.261Z,80.63
2023-04-18T04:34:38.243Z,80.92
2023-04-18T04:37:08.233Z,81.11
2023-04-18T04:39:41.678Z,81.02
2023-04-18T04:42:41.107Z,80.44
2023-04-18T04:45:15.902Z,80.47
2023-04-18T04:47:42.918Z,80.57
2023-04-18T04:50:14.858Z,80.40
2023-04-18T04:52:42.347Z,80.20
2023-04-18T04:55:09.570Z,80.40
2023-04-18T04:57:37.365Z,80.47
2023-04-18T05:00:20.952Z,80.76
2023-04-18T05:02:48.727Z,81.58
2023-04-18T05:05:16.317Z,80.57
2023-04-18T05:07:43.225Z,80.60
2023-04-18T05:10:10.792Z,81.92
2023-04-18T05:12:37.818Z,81.51
2023-04-18T05:15:05.755Z,81.44
2023-04-18T05:17:34.288Z,82.75
2023-04-18T05:20:01.115Z,81.79
2023-04-18T05:22:28.179Z,82.26
2023-04-18T05:24:55.111Z,81.63
2023-04-18T05:27:22.145Z,81.70
2023-04-18T05:29:50.349Z,81.53
2023-04-18T05:32:17.321Z,80.37
2023-04-18T05:34:46.050Z,80.64
2023-04-18T05:37:13.363Z,80.33
2023-04-18T05:39:40.505Z,79.60
2023-04-18T05:42:07.537Z,78.81
2023-04-18T05:44:34.498Z,78.44
2023-04-18T05:47:01.645Z,77.42
2023-04-18T05:49:28.537Z,78.73
2023-04-18T05:52:15.613Z,77.65
2023-04-18T05:54:42.736Z,77.00
2023-04-18T05:57:09.745Z,76.02
2023-04-18T05:59:36.761Z,75.35
2023-04-18T06:02:03.985Z,74.92
2023-04-18T06:04:31.320Z,76.50
2023-04-18T06:06:59.890Z,75.50
2023-04-18T06:09:26.934Z,75.84
2023-04-18T06:11:53.999Z,76.45
2023-04-18T06:14:20.977Z,74.48
2023-04-18T06:16:48.295Z,73.19
2023-04-18T06:19:15.349Z,74.55
2023-04-18T06:21:42.921Z,74.52
2023-04-18T06:24:11.352Z,74.97
2023-04-18T06:26:38.062Z,73.66
2023-04-18T06:29:04.974Z,72.56
2023-04-18T06:31:32.074Z,70.21
2023-04-18T06:33:59.102Z,72.76
2023-04-18T06:36:27.505Z,71.48
2023-04-18T06:38:54.658Z,72.38
2023-04-18T06:41:23.025Z,72.48
2023-04-18T06:44:02.624Z,72.37
2023-04-18T06:46:31.573Z,73.64
2023-04-18T06:48:58.588Z,73.83
2023-04-18T06:51:25.693Z,69.45
2023-04-18T06:53:53.782Z,69.62
2023-04-18T06:56:22.284Z,72.24
2023-04-18T06:58:50.160Z,71.34
2023-04-18T07:01:17.235Z,69.99
2023-04-18T07:03:44.582Z,69.28
2023-04-18T07:06:11.703Z,66.61
2023-04-18T07:08:38.722Z,67.51
2023-04-18T07:11:06.125Z,68.37
2023-04-18T07:13:34.475Z,68.05
2023-04-18T07:16:01.698Z,68.59
2023-04-18T07:18:37.504Z,67.23
2023-04-18T07:21:07.684Z,66.00
2023-04-18T07:23:35.203Z,65.83
2023-04-18T07:26:03.088Z,67.14
2023-04-18T07:28:31.748Z,65.46
2023-04-18T07:30:59.930Z,63.32
2023-04-18T07:33:27.010Z,65.12
2023-04-18T07:35:54.027Z,64.25
2023-04-18T07:38:20.952Z,62.49
2023-04-18T07:40:56.606Z,62.53
2023-04-18T07:43:23.649Z,63.54
2023-04-18T07:45:51.565Z,64.31
2023-04-18T07:48:22.263Z,61.36
2023-04-18T07:50:49.537Z,60.73
2023-04-18T07:53:16.824Z,61.61
2023-04-18T07:55:43.811Z,60.77
2023-04-18T07:58:11.229Z,59.55
2023-04-18T08:00:39.279Z,59.79
2023-04-18T08:03:07.950Z,59.39
2023-04-18T08:05:36.979Z,59.69
2023-04-18T08:08:04.013Z,61.38
2023-04-18T08:10:31.131Z,58.60
2023-04-18T08:12:58.074Z,59.59
2023-04-18T08:15:25.173Z,61.61
2023-04-18T08:17:52.135Z,59.47
2023-04-18T08:20:19.087Z,56.83
2023-04-18T08:23:04.700Z,57.91
2023-04-18T08:25:33.840Z,57.40
2023-04-18T08:28:00.857Z,57.19
2023-04-18T08:30:28.488Z,59.16
2023-04-18T08:32:55.646Z,56.98
2023-04-18T08:35:22.903Z,57.18
2023-04-18T08:37:51.293Z,54.37
2023-04-18T08:40:18.852Z,55.18
2023-04-18T08:42:46.148Z,56.29
2023-04-18T08:45:14.307Z,55.52
2023-04-18T08:47:41.477Z,55.38
2023-04-18T08:50:09.959Z,55.82
2023-04-18T08:52:37.817Z,56.75
2023-04-18T08:55:07.487Z,55.68
2023-04-18T08:57:35.988Z,55.25
2023-04-18T09:00:10.211Z,55.10
2023-04-18T09:02:45.261Z,55.02
2023-04-18T09:05:13.936Z,54.96
2023-04-18T09:07:41.335Z,54.73
2023-04-18T09:10:10.522Z,54.27
2023-04-18T09:12:42.700Z,56.54
2023-04-18T09:15:11.063Z,54.64
2023-04-18T09:17:41.703Z,56.40
2023-04-18T09:20:13.039Z,54.92
2023-04-18T09:22:49.026Z,55.70
2023-04-18T09:25:29.420Z,53.62
2023-04-18T09:28:01.876Z,54.05
2023-04-18T09:30:37.034Z,54.01
2023-04-18T09:33:05.583Z,53.97
2023-04-18T09:35:32.696Z,53.84
2023-04-18T09:37:59.671Z,54.21
2023-04-18T09:40:29.468Z,54.61
2023-04-18T09:42:56.652Z,54.50
2023-04-18T09:45:24.886Z,54.34
2023-04-18T09:47:52.259Z,54.84
2023-04-18T09:50:20.909Z,55.45
2023-04-18T09:52:48.702Z,55.22
2023-04-18T09:55:17.188Z,54.84
2023-04-18T09:57:47.034Z,54.51
2023-04-18T10:00:20.311Z,54.78
2023-04-18T10:02:52.477Z,54.90
2023-04-18T10:05:24.408Z,56.19
2023-04-18T10:07:51.730Z,56.53
2023-04-18T10:10:18.909Z,56.98
2023-04-18T10:12:48.176Z,55.49
2023-04-18T10:15:16.227Z,55.26
2023-04-18T10:17:56.034Z,54.53
2023-04-18T10:20:29.352Z,53.89
2023-04-18T10:22:57.777Z,54.35
2023-04-18T10:25:52.052Z,56.31
2023-04-18T10:28:21.081Z,56.93
2023-04-18T10:31:03.826Z,56.31
2023-04-18T10:33:33.964Z,55.93
2023-04-18T10:36:04.224Z,54.85
2023-04-18T10:38:32.207Z,54.74
2023-04-18T10:41:19.652Z,53.77
2023-04-18T10:44:06.389Z,54.14
2023-04-18T10:46:37.244Z,50.80
2023-04-18T10:49:14.309Z,50.40
2023-04-18T10:51:41.735Z,51.55
2023-04-18T10:54:12.185Z,49.71
2023-04-18T10:56:39.570Z,49.27
2023-04-18T10:59:09.569Z,51.75
2023-04-18T11:01:38.615Z,49.57
2023-04-18T11:04:12.890Z,50.56
2023-04-18T11:06:50.057Z,47.82
2023-04-18T11:09:17.333Z,49.13
2023-04-18T11:11:44.382Z,48.96
2023-04-18T11:14:11.598Z,49.73
2023-04-18T11:16:40.217Z,50.05
2023-04-18T11:19:21.111Z,49.19
2023-04-18T11:21:48.218Z,47.61
2023-04-18T11:24:22.870Z,47.91
2023-04-18T11:26:50.008Z,47.15
2023-04-18T11:29:18.025Z,47.80
2023-04-18T11:31:51.871Z,47.23
2023-04-18T11:34:18.893Z,46.53
2023-04-18T11:36:49.152Z,46.23
2023-04-18T11:39:16.217Z,48.27
2023-04-18T11:41:48.296Z,47.88
2023-04-18T11:44:15.653Z,49.45
2023-04-18T11:46:42.797Z,48.98
2023-04-18T11:49:24.714Z,45.98
2023-04-18T11:51:51.786Z,47.20
2023-04-18T11:54:40.733Z,44.90
2023-04-18T11:57:19.419Z,48.44
2023-04-18T11:59:52.068Z,51.13
2023-04-18T12:02:19.314Z,52.31
2023-04-18T12:04:59.413Z,53.71
2023-04-18T12:07:34.381Z,55.24
2023-04-18T12:10:01.525Z,56.83
2023-04-18T12:12:28.644Z,56.26
2023-04-18T12:15:00.266Z,57.15
2023-04-18T12:17:27.548Z,56.68
2023-04-18T12:19:55.522Z,57.65
2023-04-18T12:25:24.359Z,59.10
2023-04-18T12:27:56.072Z,60.67
2023-04-18T12:30:24.862Z,60.49
2023-04-18T12:32:53.548Z,61.41
2023-04-18T12:35:21.432Z,62.00
2023-04-18T12:37:49.410Z,60.95
2023-04-18T12:40:16.897Z,58.50
2023-04-18T12:42:46.029Z,60.30
2023-04-18T12:45:14.485Z,61.78
2023-04-18T12:47:43.151Z,64.47
2023-04-18T12:50:11.682Z,65.46
2023-04-18T12:52:40.226Z,65.52
2023-04-18T12:55:08.264Z,66.19
2023-04-18T12:57:35.472Z,65.19
2023-04-18T13:00:11.292Z,64.66
2023-04-18T13:02:39.460Z,63.99
2023-04-18T13:05:07.583Z,64.34
2023-04-18T13:07:35.108Z,64.34
2023-04-18T13:10:02.089Z,65.17
2023-04-18T13:12:30.615Z,63.16
2023-04-18T13:14:57.657Z,63.80
2023-04-18T13:17:26.315Z,64.24
2023-04-18T13:19:53.544Z,64.76
2023-04-18T13:22:21.270Z,65.25
2023-04-18T13:24:48.620Z,63.70
2023-04-18T13:27:15.627Z,62.82
2023-04-18T13:29:43.616Z,62.32
2023-04-18T13:32:10.750Z,62.79
2023-04-18T13:34:44.119Z,63.21
2023-04-18T13:37:11.217Z,64.79
2023-04-18T13:39:38.317Z,66.46
2023-04-18T13:42:07.554Z,66.37
2023-04-18T13:44:35.883Z,67.02
2023-04-18T13:47:03.261Z,66.22
2023-04-18T13:49:30.212Z,66.14
2023-04-18T13:51:59.175Z,65.68
2023-04-18T13:54:26.762Z,64.92
2023-04-18T13:56:53.941Z,65.25
2023-04-18T13:59:21.019Z,65.11
2023-04-18T14:01:49.257Z,64.49
2023-04-18T14:04:16.367Z,65.17
2023-04-18T14:06:43.887Z,63.83
2023-04-18T14:09:12.337Z,64.14
2023-04-18T14:11:39.385Z,64.42
2023-04-18T14:14:07.205Z,64.02
2023-04-18T14:16:34.492Z,63.61
2023-04-18T14:19:02.426Z,64.28
2023-04-18T14:21:29.552Z,63.35
2023-04-18T14:23:56.668Z,63.23
2023-04-18T14:26:25.104Z,63.60
2023-04-18T14:28:52.160Z,63.43
2023-04-18T14:31:19.395Z,63.29
2023-04-18T14:33:46.432Z,63.44
2023-04-18T14:36:15.267Z,63.34
2023-04-18T14:38:42.469Z,63.41
2023-04-18T14:41:09.391Z,62.83
2023-04-18T14:43:37.812Z,64.27
2023-04-18T14:46:10.608Z,64.43
2023-04-18T14:48:37.598Z,66.16
2023-04-18T14:51:04.823Z,67.49
2023-04-18T14:53:31.735Z,68.67
2023-04-18T14:55:58.740Z,68.38
2023-04-18T14:58:25.756Z,69.75
2023-04-18T15:00:54.110Z,69.39
2023-04-18T15:03:21.225Z,68.18
2023-04-18T15:05:49.130Z,69.29
2023-04-18T15:08:16.604Z,69.40
2023-04-18T15:10:44.746Z,68.89
2023-04-18T15:13:11.768Z,70.01
2023-04-18T15:15:39.900Z,70.39
2023-04-18T15:18:08.691Z,69.02
2023-04-18T15:20:37.310Z,69.78
2023-04-18T15:23:04.275Z,69.56
2023-04-18T15:25:31.344Z,70.84
2023-04-18T15:27:58.636Z,69.65
2023-04-18T15:30:25.790Z,69.45
2023-04-18T15:32:54.080Z,68.99
2023-04-18T15:35:22.311Z,69.40
2023-04-18T15:37:49.326Z,68.19
2023-04-18T15:40:16.577Z,69.19
2023-04-18T15:42:43.844Z,69.07
2023-04-18T15:45:11.666Z,69.04
2023-04-18T15:47:38.939Z,70.63
2023-04-18T15:50:07.319Z,69.70
2023-04-18T15:52:36.196Z,69.34
2023-04-18T15:55:03.569Z,69.73
2023-04-18T15:57:30.998Z,70.41
2023-04-18T15:59:59.626Z,69.89
2023-04-18T16:02:26.959Z,70.71
2023-04-18T16:04:54.088Z,72.30
2023-04-18T16:07:21.127Z,71.50
2023-04-18T16:09:49.478Z,72.09
2023-04-18T16:12:16.372Z,70.27
2023-04-18T16:14:43.353Z,70.08
2023-04-18T16:17:10.553Z,70.73
2023-04-18T16:19:38.870Z,70.41
2023-04-18T16:22:07.228Z,69.44
2023-04-18T16:24:34.218Z,70.97
2023-04-18T16:27:02.835Z,70.76
2023-04-18T16:29:30.023Z,71.11
2023-04-18T16:31:57.021Z,71.38
2023-04-18T16:34:23.979Z,71.52
2023-04-18T16:36:51.279Z,71.62
2023-04-18T16:39:19.296Z,72.10
2023-04-18T16:41:46.596Z,71.52
2023-04-18T16:44:15.206Z,71.16
2023-04-18T16:46:42.544Z,71.39
2023-04-18T16:49:09.674Z,73.14
2023-04-18T16:51:37.817Z,71.83
2023-04-18T16:54:05.932Z,73.35
2023-04-18T16:56:33.790Z,71.58
2023-04-18T16:59:00.836Z,71.83
2023-04-18T17:01:29.268Z,73.44
2023-04-18T17:03:56.139Z,74.05
2023-04-18T17:08:53.541Z,74.08
2023-04-18T17:11:20.857Z,74.14
2023-04-18T17:13:48.175Z,72.86
2023-04-18T17:16:15.352Z,73.38
2023-04-18T17:18:43.865Z,73.18
2023-04-18T17:21:12.625Z,73.34
2023-04-18T17:23:41.478Z,73.05
2023-04-18T17:26:08.703Z,73.01
2023-04-18T17:28:36.457Z,73.88
2023-04-18T17:31:03.893Z,73.86
2023-04-18T17:33:31.008Z,74.35
2023-04-18T17:35:59.466Z,75.12
2023-04-18T17:38:26.265Z,75.55
2023-04-18T17:41:00.135Z,74.99
2023-04-18T17:43:27.790Z,74.96
2023-04-18T17:45:56.042Z,75.04
2023-04-18T17:48:23.205Z,74.61
2023-04-18T17:50:50.248Z,74.54
2023-04-18T17:53:18.924Z,75.44
2023-04-18T17:55:48.909Z,75.26
2023-04-18T17:58:16.997Z,75.15
2023-04-18T18:00:44.182Z,75.31
2023-04-18T18:03:13.678Z,75.03
2023-04-18T18:05:41.865Z,75.39
2023-04-18T18:08:08.969Z,75.58
2023-04-18T18:10:37.393Z,75.49
2023-04-18T18:13:04.559Z,75.29
2023-04-18T18:15:31.901Z,75.72
2023-04-18T18:17:59.291Z,76.46
2023-04-18T18:20:27.419Z,76.55
2023-04-18T18:22:55.017Z,76.09
2023-04-18T18:25:22.030Z,76.12
2023-04-18T18:27:51.541Z,76.35
2023-04-18T18:30:19.041Z,75.63
2023-04-18T18:32:46.229Z,75.77
2023-04-18T18:35:13.341Z,76.22
2023-04-18T18:37:41.113Z,76.68
2023-04-18T18:40:09.485Z,76.40
2023-04-18T18:42:36.924Z,76.17
2023-04-18T18:45:07.544Z,76.09
2023-04-18T18:47:34.933Z,75.48
2023-04-18T18:50:03.207Z,76.00
2023-04-18T18:52:31.023Z,76.15
2023-04-18T18:54:58.002Z,76.15
2023-04-18T18:57:25.119Z,76.11
2023-04-18T18:59:53.349Z,76.63
2023-04-18T19:02:23.884Z,75.49
2023-04-18T19:04:51.062Z,75.64
2023-04-18T19:07:18.038Z,75.79
2023-04-18T19:09:46.468Z,75.78
2023-04-18T19:12:13.162Z,76.20
2023-04-18T19:14:42.282Z,77.17
2023-04-18T19:17:09.429Z,77.15
2023-04-18T19:19:37.916Z,76.93
2023-04-18T19:22:06.465Z,76.63
2023-04-18T19:24:34.943Z,76.36
2023-04-18T19:27:02.962Z,76.58
2023-04-18T19:29:32.456Z,75.92
2023-04-18T19:31:59.907Z,76.55
2023-04-18T19:34:27.048Z,76.13
2023-04-18T19:36:55.533Z,75.61
2023-04-18T19:39:22.500Z,75.86
2023-04-18T19:41:49.504Z,75.94
2023-04-18T19:44:16.482Z,76.40
2023-04-18T19:46:43.492Z,77.14
2023-04-18T19:49:10.639Z,76.07
2023-04-18T19:51:38.995Z,75.94
2023-04-18T19:54:07.491Z,75.78
2023-04-18T19:56:34.481Z,81.15
2023-04-18T19:59:01.774Z,82.21
2023-04-18T20:01:28.763Z,76.11
2023-04-18T20:03:58.624Z,75.04
2023-04-18T20:06:28.955Z,74.91
2023-04-18T20:08:56.044Z,75.63
2023-04-18T20:11:24.889Z,75.71
2023-04-18T20:13:52.451Z,75.37
2023-04-18T20:16:19.593Z,76.68
2023-04-18T20:18:47.547Z,76.20
2023-04-18T20:21:14.696Z,76.76
2023-04-18T20:23:42.735Z,76.50
2023-04-18T20:26:09.797Z,75.93
2023-04-18T20:28:38.250Z,75.58
2023-04-18T20:31:05.628Z,75.72
2023-04-18T20:33:33.153Z,76.53
2023-04-18T20:36:00.409Z,76.28
2023-04-18T20:38:29.680Z,76.64
2023-04-18T20:40:58.969Z,76.49
2023-04-18T20:43:26.130Z,77.67
2023-04-18T20:45:54.699Z,76.98
2023-04-18T20:48:21.771Z,77.03
2023-04-18T20:50:51.893Z,76.48
2023-04-18T20:53:20.598Z,76.94
2023-04-18T20:55:47.688Z,76.27
2023-04-18T20:58:14.664Z,76.97
2023-04-18T21:00:41.865Z,77.24
2023-04-18T21:03:10.399Z,76.79
2023-04-18T21:05:37.587Z,76.35
2023-04-18T21:08:05.254Z,76.09
2023-04-18T21:10:32.445Z,76.85
2023-04-18T21:12:59.377Z,76.55
2023-04-18T21:15:26.353Z,76.55
2023-04-18T21:17:53.409Z,75.96
2023-04-18T21:20:22.159Z,76.29
2023-04-18T21:22:49.143Z,76.34
2023-04-18T21:25:16.587Z,75.60
2023-04-18T21:27:43.605Z,75.45
2023-04-18T21:30:11.178Z,75.03
2023-04-18T21:32:38.311Z,73.82
2023-04-18T21:35:06.040Z,74.21
2023-04-18T21:37:34.411Z,74.99
2023-04-18T21:40:01.854Z,74.93
2023-04-18T21:42:28.849Z,75.20
2023-04-18T21:44:55.897Z,75.82
2023-04-18T21:47:23.026Z,75.55
2023-04-18T21:49:49.971Z,75.21
2023-04-18T21:52:16.909Z,75.40
2023-04-18T21:54:45.521Z,74.73
2023-04-18T21:57:12.488Z,75.61
2023-04-18T21:59:39.454Z,74.57
2023-04-18T22:02:06.484Z,75.48
2023-04-18T22:04:33.873Z,75.32
2023-04-18T22:07:00.956Z,76.74
2023-04-18T22:09:28.640Z,76.41
2023-04-18T22:11:57.164Z,76.39
2023-04-18T22:14:24.908Z,76.32
2023-04-18T22:16:51.971Z,76.81
2023-04-18T22:19:19.465Z,76.45
2023-04-18T22:21:46.489Z,75.96
2023-04-18T22:24:13.698Z,75.98
2023-04-18T22:26:41.070Z,76.15
2023-04-18T22:29:09.418Z,76.15
2023-04-18T22:31:36.598Z,75.96
2023-04-18T22:34:04.612Z,76.98
2023-04-18T22:36:31.775Z,76.88
2023-04-18T22:38:59.007Z,76.71
2023-04-18T22:41:25.975Z,77.09
2023-04-18T22:43:53.024Z,76.88
2023-04-18T22:46:21.864Z,76.75
2023-04-18T22:48:49.398Z,76.36
2023-04-18T22:51:18.400Z,75.88
2023-04-18T22:53:45.326Z,76.22
2023-04-18T22:56:12.268Z,76.32
2023-04-18T22:58:39.315Z,77.04
2023-04-18T23:01:06.300Z,75.96
2023-04-18T23:03:34.991Z,74.62
2023-04-18T23:06:02.119Z,75.33
2023-04-18T23:08:29.215Z,75.15
2023-04-18T23:10:56.206Z,75.24
2023-04-18T23:13:23.148Z,75.50
2023-04-18T23:15:50.118Z,76.49
2023-04-18T23:18:17.049Z,76.95
2023-04-18T23:20:45.992Z,76.09
2023-04-18T23:23:13.222Z,75.89
2023-04-18T23:25:40.207Z,75.62
2023-04-18T23:28:07.706Z,76.17
2023-04-18T23:30:36.351Z,76.71
2023-04-18T23:33:03.450Z,76.07
2023-04-18T23:35:30.587Z,76.06
2023-04-18T23:37:58.956Z,75.45
2023-04-18T23:40:26.023Z,74.42
2023-04-18T23:42:53.015Z,73.46
2023-04-18T23:45:20.002Z,73.29
2023-04-18T23:47:47.034Z,74.26
2023-04-18T23:50:14.061Z,74.50
2023-04-18T23:52:41.103Z,74.40
2023-04-18T23:55:10.265Z,74.95
2023-04-18T23:57:37.230Z,74.75
